createdAt,value
2019-03-04T00:02:07.187Z,94197.79
2019-03-04T00:04:35.732Z,94197.79
2019-03-04T00:07:04.398Z,94197.94
2019-03-04T00:09:33.017Z,94197.94
2019-03-04T00:12:01.631Z,94189.14
2019-03-04T00:14:30.289Z,94174.69
2019-03-04T00:16:58.921Z,94174.69
2019-03-04T00:19:27.547Z,94184.16
2019-03-04T00:21:56.201Z,94182.77
2019-03-04T00:24:24.812Z,94184.25
2019-03-04T00:26:53.439Z,94187.73
2019-03-04T00:29:22.100Z,94179.13
2019-03-04T00:31:50.724Z,94169.41
2019-03-04T00:34:19.346Z,94174.56
2019-03-04T00:36:48.011Z,94175.41
2019-03-04T00:39:16.557Z,94168.43
2019-03-04T00:41:45.173Z,94170.45
2019-03-04T00:44:13.833Z,94162.98
2019-03-04T00:46:42.451Z,94161.83
2019-03-04T00:49:11.072Z,94153.87
2019-03-04T00:51:39.729Z,94169.66
2019-03-04T00:54:08.359Z,94169.66
2019-03-04T00:56:36.974Z,94164.84
2019-03-04T00:59:05.633Z,94156.67
2019-03-04T01:01:34.255Z,94161.56
2019-03-04T01:04:02.952Z,94165.34
2019-03-04T01:06:31.616Z,94161.70
2019-03-04T01:09:00.236Z,94158.55
2019-03-04T01:11:28.854Z,94153.31
2019-03-04T01:13:57.532Z,94153.31
2019-03-04T01:16:26.153Z,94147.31
2019-03-04T01:18:54.784Z,94146.66
2019-03-04T01:21:23.445Z,94147.48
2019-03-04T01:23:52.057Z,94143.41
2019-03-04T01:26:20.680Z,94138.72
2019-03-04T01:28:49.331Z,94145.14
2019-03-04T01:31:17.941Z,94136.30
2019-03-04T01:33:46.564Z,94125.57
2019-03-04T01:36:15.229Z,94132.05
2019-03-04T01:38:43.781Z,94133.07
2019-03-04T01:41:12.397Z,94127.38
2019-03-04T01:43:41.899Z,94129.95
2019-03-04T01:46:10.578Z,94132.59
2019-03-04T01:48:39.219Z,94127.14
2019-03-04T01:51:07.818Z,94131.41
2019-03-04T01:53:36.438Z,94128.31
2019-03-04T01:56:05.054Z,94129.16
2019-03-04T01:58:33.708Z,94131.18
2019-03-04T02:01:02.332Z,94131.59
2019-03-04T02:03:30.950Z,94133.04
2019-03-04T02:05:59.605Z,94129.86
2019-03-04T02:08:28.237Z,94135.31
2019-03-04T02:10:56.870Z,94138.14
2019-03-04T02:13:25.538Z,94142.69
2019-03-04T02:15:54.289Z,94136.55
2019-03-04T02:18:22.910Z,94133.07
2019-03-04T02:20:51.571Z,94130.86
2019-03-04T02:23:20.207Z,94130.54
2019-03-04T02:25:51.743Z,94132.13
2019-03-04T02:28:20.469Z,94131.67
2019-03-04T02:30:49.096Z,94131.96
2019-03-04T02:33:17.722Z,94137.39
2019-03-04T02:38:46.584Z,94148.61
2019-03-04T02:41:15.217Z,94145.70
2019-03-04T02:43:43.866Z,94145.75
2019-03-04T02:46:13.341Z,94149.69
2019-03-04T02:48:41.963Z,94151.38
2019-03-04T02:51:10.591Z,94140.17
2019-03-04T02:53:39.261Z,94129.95
2019-03-04T02:56:07.894Z,94124.02
2019-03-04T02:58:36.522Z,94131.73
2019-03-04T03:01:05.266Z,94134.91
2019-03-04T03:03:33.893Z,94129.30
2019-03-04T03:06:02.529Z,94115.91
2019-03-04T03:08:31.183Z,94125.27
2019-03-04T03:10:59.814Z,94119.08
2019-03-04T03:13:28.452Z,94125.90
2019-03-04T03:15:57.090Z,94123.67
2019-03-04T03:18:25.701Z,94125.88
2019-03-04T03:20:54.339Z,94124.73
2019-03-04T03:23:22.999Z,94115.36
2019-03-04T03:25:51.631Z,94128.86
2019-03-04T03:28:20.256Z,94132.06
2019-03-04T03:30:48.910Z,94132.63
2019-03-04T03:33:17.530Z,94133.85
2019-03-04T03:35:46.145Z,94131.11
2019-03-04T03:38:14.814Z,94136.34
2019-03-04T03:40:43.435Z,94131.58
2019-03-04T03:43:12.065Z,94128.42
2019-03-04T03:45:40.711Z,94129.04
2019-03-04T03:48:09.339Z,94122.11
2019-03-04T03:50:37.950Z,94119.64
2019-03-04T03:53:06.605Z,94117.98
2019-03-04T03:55:35.228Z,94104.81
2019-03-04T03:58:03.853Z,94114.49
2019-03-04T04:00:32.523Z,94124.13
2019-03-04T04:03:01.135Z,94116.89
2019-03-04T04:05:29.751Z,94120.58
2019-03-04T04:07:58.414Z,94117.60
2019-03-04T04:10:27.035Z,94119.38
2019-03-04T04:12:55.657Z,94117.73
2019-03-04T04:15:24.314Z,94115.73
2019-03-04T04:17:52.932Z,94116.00
2019-03-04T04:20:21.548Z,94119.10
2019-03-04T04:22:50.199Z,94114.04
2019-03-04T04:25:18.826Z,94114.12
2019-03-04T04:27:47.453Z,94110.20
2019-03-04T04:30:18.749Z,94110.85
2019-03-04T04:32:47.383Z,94105.66
2019-03-04T04:35:15.987Z,94108.18
2019-03-04T04:37:44.663Z,94108.05
2019-03-04T04:40:16.190Z,94114.88
2019-03-04T04:42:44.805Z,94103.89
2019-03-04T04:45:13.450Z,94099.77
2019-03-04T04:47:43.177Z,94102.91
2019-03-04T04:50:17.692Z,94091.97
2019-03-04T04:52:46.319Z,94091.65
2019-03-04T04:55:14.938Z,94100.94
2019-03-04T04:57:43.593Z,94097.45
2019-03-04T05:00:14.594Z,94102.13
2019-03-04T05:02:43.212Z,94100.10
2019-03-04T05:05:11.872Z,94100.02
2019-03-04T05:07:40.502Z,94094.47
2019-03-04T05:10:22.635Z,94099.31
2019-03-04T05:12:51.246Z,94096.80
2019-03-04T05:15:20.064Z,94102.75
2019-03-04T05:17:48.728Z,94103.53
2019-03-04T05:20:26.886Z,94104.52
2019-03-04T05:22:55.466Z,94110.14
2019-03-04T05:25:24.096Z,94109.80
2019-03-04T05:27:52.718Z,94110.73
2019-03-04T05:30:22.272Z,94111.52
2019-03-04T05:32:50.900Z,94113.09
2019-03-04T05:35:19.523Z,94108.97
2019-03-04T05:37:48.198Z,94106.52
2019-03-04T05:40:18.700Z,94110.14
2019-03-04T05:42:47.535Z,94113.05
2019-03-04T05:45:19.451Z,94105.09
2019-03-04T05:47:48.064Z,94107.00
2019-03-04T05:50:25.108Z,94107.14
2019-03-04T05:52:53.726Z,94112.04
2019-03-04T05:55:23.455Z,94113.54
2019-03-04T05:57:52.113Z,94124.63
2019-03-04T06:00:23.106Z,94129.67
2019-03-04T06:02:53.981Z,94133.97
2019-03-04T06:05:22.643Z,94140.30
2019-03-04T06:07:52.908Z,94144.17
2019-03-04T06:10:21.538Z,94143.09
2019-03-04T06:12:50.203Z,94144.33
2019-03-04T06:15:22.081Z,94145.58
2019-03-04T06:17:50.706Z,94144.23
2019-03-04T06:20:20.349Z,94149.64
2019-03-04T06:22:48.974Z,94153.34
2019-03-04T06:25:20.508Z,94155.08
2019-03-04T06:27:49.169Z,94156.27
2019-03-04T06:30:20.326Z,94160.46
2019-03-04T06:32:48.963Z,94163.73
2019-03-04T06:35:17.618Z,94161.31
2019-03-04T06:37:46.243Z,94164.94
2019-03-04T06:40:16.837Z,94166.97
2019-03-04T06:42:45.609Z,94172.36
2019-03-04T06:45:16.472Z,94167.23
2019-03-04T06:47:45.190Z,94156.66
2019-03-04T06:50:45.552Z,94167.51
2019-03-04T06:53:17.016Z,94167.03
2019-03-04T06:55:51.518Z,94166.05
2019-03-04T06:58:20.145Z,94163.08
2019-03-04T07:00:51.079Z,94170.16
2019-03-04T07:03:21.042Z,94167.41
2019-03-04T07:05:50.631Z,94170.39
2019-03-04T07:08:40.299Z,94175.19
2019-03-04T07:11:08.922Z,94172.89
2019-03-04T07:13:37.548Z,94177.47
2019-03-04T07:16:06.226Z,94181.31
2019-03-04T07:18:34.854Z,94171.33
2019-03-04T07:21:03.471Z,94164.30
2019-03-04T07:23:32.123Z,94172.84
2019-03-04T07:26:00.748Z,94167.82
2019-03-04T07:28:29.373Z,94168.05
2019-03-04T07:30:58.032Z,94163.95
2019-03-04T07:33:26.649Z,94165.38
2019-03-04T07:35:55.277Z,94158.08
2019-03-04T07:38:26.847Z,94158.08
2019-03-04T07:40:55.476Z,94153.70
2019-03-04T07:43:24.082Z,94149.23
2019-03-04T07:45:52.742Z,94149.23
2019-03-04T07:48:21.395Z,94148.28
2019-03-04T07:50:49.992Z,94148.41
2019-03-04T07:53:19.191Z,94147.05
2019-03-04T07:55:47.891Z,94150.19
2019-03-04T07:58:16.496Z,94150.19
2019-03-04T08:00:45.216Z,94147.27
2019-03-04T08:03:13.846Z,94135.41
2019-03-04T08:05:42.473Z,94141.84
2019-03-04T08:08:13.039Z,94149.30
2019-03-04T08:11:15.975Z,94149.97
2019-03-04T08:13:56.348Z,94149.61
2019-03-04T08:16:24.972Z,94141.34
2019-03-04T08:18:53.603Z,94133.17
2019-03-04T08:21:22.275Z,94133.17
2019-03-04T08:23:50.904Z,94132.45
2019-03-04T08:26:19.539Z,94132.45
2019-03-04T08:28:48.200Z,94126.80
2019-03-04T08:31:16.827Z,94126.80
2019-03-04T08:33:45.455Z,94131.89
2019-03-04T08:36:14.112Z,94128.53
2019-03-04T08:38:42.747Z,94108.94
2019-03-04T08:41:11.379Z,94112.11
2019-03-04T08:43:40.043Z,94103.31
2019-03-04T08:46:08.674Z,94089.72
2019-03-04T08:48:37.308Z,94111.20
2019-03-04T08:51:05.976Z,94107.77
2019-03-04T08:53:35.438Z,94113.64
2019-03-04T08:56:04.068Z,94103.64
2019-03-04T08:58:34.365Z,94105.56
2019-03-04T09:01:03.154Z,94099.30
2019-03-04T09:03:31.770Z,94106.39
2019-03-04T09:06:00.438Z,94098.45
2019-03-04T09:08:29.067Z,94099.86
2019-03-04T09:10:57.691Z,94097.33
2019-03-04T09:13:26.358Z,94099.07
2019-03-04T09:15:54.987Z,94094.19
2019-03-04T09:18:23.613Z,94091.50
2019-03-04T09:20:52.275Z,94091.15
2019-03-04T09:23:20.908Z,94090.50
2019-03-04T09:25:55.214Z,94089.86
2019-03-04T09:28:23.887Z,94080.88
2019-03-04T09:30:52.519Z,94088.80
2019-03-04T09:33:21.231Z,94075.72
2019-03-04T09:35:49.898Z,94075.72
2019-03-04T09:38:18.527Z,94070.35
2019-03-04T09:40:47.169Z,94070.02
2019-03-04T09:43:15.828Z,94064.37
2019-03-04T09:45:44.459Z,94056.19
2019-03-04T09:48:13.081Z,94064.21
2019-03-04T09:50:41.750Z,94063.80
2019-03-04T09:53:10.366Z,94061.97
2019-03-04T09:55:39.832Z,94060.41
2019-03-04T09:58:08.507Z,94052.58
2019-03-04T10:00:39.131Z,94053.44
2019-03-04T10:03:40.609Z,94041.33
2019-03-04T10:06:42.247Z,94045.05
2019-03-04T10:09:25.479Z,94034.45
2019-03-04T10:11:57.006Z,94028.59
2019-03-04T10:14:49.447Z,94031.59
2019-03-04T10:17:39.037Z,94022.73
2019-03-04T10:20:31.325Z,94018.52
2019-03-04T10:23:22.034Z,94008.55
2019-03-04T10:26:05.315Z,94009.89
2019-03-04T10:28:54.735Z,94011.83
2019-03-04T10:31:31.923Z,94002.28
2019-03-04T10:34:27.500Z,93992.19
2019-03-04T10:39:59.115Z,93995.94
2019-03-04T10:42:46.773Z,93981.71
2019-03-04T10:45:33.029Z,93974.66
2019-03-04T10:48:01.650Z,93969.58
2019-03-04T10:50:30.277Z,93971.67
2019-03-04T10:52:58.935Z,93962.66
2019-03-04T10:55:27.565Z,93956.70
2019-03-04T10:57:56.182Z,93955.20
2019-03-04T11:00:24.855Z,93944.63
2019-03-04T11:02:53.477Z,93950.89
2019-03-04T11:05:22.202Z,93939.71
2019-03-04T11:07:50.861Z,93942.34
2019-03-04T11:10:19.498Z,93936.55
2019-03-04T11:12:48.124Z,93933.41
2019-03-04T11:15:26.733Z,93935.48
2019-03-04T11:17:55.355Z,93923.33
2019-03-04T11:20:23.971Z,93921.48
2019-03-04T11:22:52.704Z,93913.05
2019-03-04T11:25:21.427Z,93910.09
2019-03-04T11:27:50.124Z,93906.34
2019-03-04T11:30:22.519Z,93899.33
2019-03-04T11:32:51.125Z,93900.92
2019-03-04T11:35:19.754Z,93895.91
2019-03-04T11:37:48.407Z,93891.78
2019-03-04T11:40:24.543Z,93884.05
2019-03-04T11:42:53.204Z,93878.70
2019-03-04T11:45:21.823Z,93873.03
2019-03-04T11:47:50.446Z,93870.77
2019-03-04T11:50:19.115Z,93863.45
2019-03-04T11:52:47.746Z,93854.81
2019-03-04T11:55:18.908Z,93855.20
2019-03-04T11:57:47.571Z,93853.23
2019-03-04T12:00:20.909Z,93844.48
2019-03-04T12:02:49.534Z,93839.80
2019-03-04T12:05:18.252Z,93843.06
2019-03-04T12:07:46.882Z,93842.23
2019-03-04T12:10:16.673Z,93827.55
2019-03-04T12:12:45.440Z,93824.01
2019-03-04T12:15:19.028Z,93815.20
2019-03-04T12:17:47.716Z,93813.98
2019-03-04T12:20:17.774Z,93811.75
2019-03-04T12:22:46.402Z,93812.70
2019-03-04T12:25:17.100Z,93806.89
2019-03-04T12:27:45.770Z,93806.76
2019-03-04T12:30:17.127Z,93796.55
2019-03-04T12:32:45.752Z,93800.12
2019-03-04T12:35:15.308Z,93799.69
2019-03-04T12:37:43.930Z,93798.97
2019-03-04T12:40:14.742Z,93792.47
2019-03-04T12:42:43.396Z,93793.44
2019-03-04T12:45:20.496Z,93783.70
2019-03-04T12:47:49.226Z,93784.12
2019-03-04T12:50:25.533Z,93781.66
2019-03-04T12:52:54.692Z,93770.03
2019-03-04T12:55:23.316Z,93768.45
2019-03-04T12:57:52.777Z,93767.50
2019-03-04T13:00:23.032Z,93763.34
2019-03-04T13:02:57.431Z,93760.77
2019-03-04T13:05:22.105Z,93754.81
2019-03-04T13:07:50.761Z,93746.88
2019-03-04T13:10:19.951Z,93746.58
2019-03-04T13:12:48.771Z,93745.08
2019-03-04T13:15:35.048Z,93744.53
2019-03-04T13:18:06.067Z,93735.40
2019-03-04T13:20:34.774Z,93734.35
2019-03-04T13:23:03.428Z,93732.23
2019-03-04T13:25:32.055Z,93721.53
2019-03-04T13:28:07.778Z,93718.52
2019-03-04T13:30:36.598Z,93715.51
2019-03-04T13:33:05.317Z,93714.95
2019-03-04T13:35:39.608Z,93713.23
2019-03-04T13:38:08.277Z,93708.97
2019-03-04T13:40:37.105Z,93717.17
2019-03-04T13:43:05.797Z,93699.81
2019-03-04T13:45:34.619Z,93707.72
2019-03-04T13:48:03.246Z,93703.91
2019-03-04T13:50:32.671Z,93698.69
2019-03-04T13:53:01.326Z,93695.95
2019-03-04T13:55:29.953Z,93693.24
2019-03-04T13:57:59.378Z,93691.91
2019-03-04T14:00:36.538Z,93691.15
2019-03-04T14:03:05.267Z,93683.83
2019-03-04T14:05:33.892Z,93682.46
2019-03-04T14:08:02.554Z,93689.11
2019-03-04T14:10:45.746Z,93674.22
2019-03-04T14:13:14.404Z,93675.32
2019-03-04T14:15:47.937Z,93666.91
2019-03-04T14:18:16.558Z,93666.91
2019-03-04T14:20:45.220Z,93661.91
2019-03-04T14:23:13.851Z,93653.83
2019-03-04T14:25:42.481Z,93651.22
2019-03-04T14:28:11.141Z,93644.95
2019-03-04T14:30:39.761Z,93647.09
2019-03-04T14:33:08.388Z,93644.00
2019-03-04T14:35:37.043Z,93641.05
2019-03-04T14:38:05.670Z,93640.70
2019-03-04T14:40:34.304Z,93637.63
2019-03-04T14:43:02.966Z,93637.65
2019-03-04T14:45:31.587Z,93634.97
2019-03-04T14:48:00.283Z,93635.78
2019-03-04T14:50:28.962Z,93638.12
2019-03-04T14:52:57.598Z,93636.50
2019-03-04T14:55:29.126Z,93637.28
2019-03-04T14:57:57.804Z,93634.97
2019-03-04T15:00:31.052Z,93628.79
2019-03-04T15:02:59.728Z,93631.54
2019-03-04T15:05:28.410Z,93624.61
2019-03-04T15:07:57.039Z,93628.05
2019-03-04T15:10:25.664Z,93621.33
2019-03-04T15:12:54.322Z,93614.73
2019-03-04T15:15:27.358Z,93608.11
2019-03-04T15:17:56.067Z,93609.42
2019-03-04T15:20:27.252Z,93606.17
2019-03-04T15:22:55.948Z,93605.02
2019-03-04T15:25:27.409Z,93600.98
2019-03-04T15:27:58.971Z,93602.33
2019-03-04T15:30:27.676Z,93591.36
2019-03-04T15:32:56.371Z,93588.12
2019-03-04T15:35:25.024Z,93590.78
2019-03-04T15:37:53.707Z,93587.94
2019-03-04T15:40:22.328Z,93584.25
2019-03-04T15:42:51.064Z,93590.80
2019-03-04T15:45:19.768Z,93581.79
2019-03-04T15:47:48.398Z,93584.83
2019-03-04T15:50:17.227Z,93582.53
2019-03-04T15:52:45.924Z,93580.62
2019-03-04T15:55:14.627Z,93582.48
2019-03-04T15:57:43.363Z,93582.47
2019-03-04T16:00:17.344Z,93575.78
2019-03-04T16:02:48.752Z,93574.27
2019-03-04T16:05:17.881Z,93577.11
2019-03-04T16:07:46.669Z,93587.02
2019-03-04T16:10:21.506Z,93574.99
2019-03-04T16:12:50.303Z,93589.00
2019-03-04T16:15:20.225Z,93578.38
2019-03-04T16:17:49.076Z,93582.15
2019-03-04T16:20:19.850Z,93587.56
2019-03-04T16:22:49.050Z,93579.20
2019-03-04T16:25:17.792Z,93589.39
2019-03-04T16:27:46.496Z,93584.09
2019-03-04T16:30:21.076Z,93593.14
2019-03-04T16:32:49.820Z,93601.42
2019-03-04T16:35:18.821Z,93596.08
2019-03-04T16:37:47.532Z,93596.19
2019-03-04T16:40:17.555Z,93589.58
2019-03-04T16:42:46.179Z,93593.25
2019-03-04T16:45:19.726Z,93588.57
2019-03-04T16:47:48.772Z,93588.33
2019-03-04T16:50:19.068Z,93584.98
2019-03-04T16:52:50.481Z,93580.87
2019-03-04T16:55:19.245Z,93571.49
2019-03-04T16:57:47.966Z,93584.41
2019-03-04T17:01:01.472Z,93574.03
2019-03-04T17:03:31.005Z,93579.16
2019-03-04T17:05:59.909Z,93577.32
2019-03-04T17:08:28.673Z,93580.12
2019-03-04T17:10:57.365Z,93579.00
2019-03-04T17:13:26.345Z,93576.94
2019-03-04T17:15:55.181Z,93577.97
2019-03-04T17:18:23.880Z,93577.53
2019-03-04T17:20:52.569Z,93583.79
2019-03-04T17:23:21.489Z,93572.74
2019-03-04T17:25:50.179Z,93562.92
2019-03-04T17:28:19.476Z,93573.43
2019-03-04T17:30:48.262Z,93575.05
2019-03-04T17:33:17.071Z,93573.96
2019-03-04T17:35:45.766Z,93579.91
2019-03-04T17:38:14.502Z,93572.12
2019-03-04T17:40:43.209Z,93570.17
2019-03-04T17:43:11.914Z,93581.86
2019-03-04T17:45:40.632Z,93574.08
2019-03-04T17:48:09.327Z,93576.92
2019-03-04T17:50:40.275Z,93584.33
2019-03-04T17:53:11.110Z,93576.45
2019-03-04T17:55:39.807Z,93580.56
2019-03-04T17:58:08.498Z,93588.56
2019-03-04T18:00:38.912Z,93578.69
2019-03-04T18:03:07.817Z,93579.90
2019-03-04T18:05:36.507Z,93573.35
2019-03-04T18:08:05.337Z,93584.97
2019-03-04T18:10:34.029Z,93589.70
2019-03-04T18:13:05.522Z,93590.31
2019-03-04T18:15:41.612Z,93589.89
2019-03-04T18:18:10.312Z,93597.36
2019-03-04T18:20:39.017Z,93599.83
2019-03-04T18:23:07.746Z,93604.23
2019-03-04T18:25:45.254Z,93603.05
2019-03-04T18:28:19.521Z,93607.15
2019-03-04T18:30:57.155Z,93597.22
2019-03-04T18:33:34.560Z,93608.25
2019-03-04T18:36:09.114Z,93611.03
2019-03-04T18:38:46.737Z,93605.13
2019-03-04T18:41:34.823Z,93613.76
2019-03-04T18:44:06.453Z,93627.48
2019-03-04T18:46:52.992Z,93623.50
2019-03-04T18:49:21.791Z,93631.72
2019-03-04T18:51:50.517Z,93625.98
2019-03-04T18:54:19.208Z,93629.69
2019-03-04T18:56:48.174Z,93621.47
2019-03-04T18:59:16.882Z,93619.98
2019-03-04T19:01:45.675Z,93619.41
2019-03-04T19:04:14.443Z,93620.66
2019-03-04T19:06:44.597Z,93625.40
2019-03-04T19:09:13.594Z,93628.00
2019-03-04T19:11:42.336Z,93633.89
2019-03-04T19:14:11.134Z,93636.16
2019-03-04T19:16:39.828Z,93624.47
2019-03-04T19:19:08.676Z,93627.48
2019-03-04T19:21:37.390Z,93624.39
2019-03-04T19:24:06.083Z,93623.65
2019-03-04T19:26:34.927Z,93619.92
2019-03-04T19:29:03.633Z,93623.11
2019-03-04T19:31:32.433Z,93632.09
2019-03-04T19:34:01.157Z,93629.48
2019-03-04T19:36:29.861Z,93624.94
2019-03-04T19:38:58.662Z,93624.27
2019-03-04T19:41:27.446Z,93620.16
2019-03-04T19:43:56.246Z,93609.48
2019-03-04T19:46:25.033Z,93612.21
2019-03-04T19:48:53.767Z,93611.14
2019-03-04T19:51:22.476Z,93603.80
2019-03-04T19:53:51.367Z,93607.25
2019-03-04T19:56:20.220Z,93604.56
2019-03-04T19:58:48.908Z,93609.61
2019-03-04T20:01:17.632Z,93606.53
2019-03-04T20:03:46.348Z,93618.12
2019-03-04T20:06:15.055Z,93608.25
2019-03-04T20:08:44.449Z,93609.30
2019-03-04T20:11:13.187Z,93619.03
2019-03-04T20:13:41.908Z,93621.81
2019-03-04T20:16:10.612Z,93626.36
2019-03-04T20:18:39.349Z,93621.67
2019-03-04T20:21:08.574Z,93615.94
2019-03-04T20:23:37.240Z,93607.41
2019-03-04T20:26:06.236Z,93615.50
2019-03-04T20:28:34.940Z,93613.81
2019-03-04T20:31:03.637Z,93607.21
2019-03-04T20:33:32.397Z,93614.52
2019-03-04T20:36:01.029Z,93610.06
2019-03-04T20:38:35.923Z,93607.52
2019-03-04T20:41:04.656Z,93607.89
2019-03-04T20:43:33.293Z,93606.21
2019-03-04T20:46:01.990Z,93601.97
2019-03-04T20:48:30.730Z,93610.24
2019-03-04T20:51:00.237Z,93606.09
2019-03-04T20:53:28.933Z,93597.86
2019-03-04T20:55:57.678Z,93593.03
2019-03-04T20:58:26.528Z,93591.54
2019-03-04T21:00:55.165Z,93591.41
2019-03-04T21:03:23.831Z,93596.88
2019-03-04T21:05:52.542Z,93588.25
2019-03-04T21:08:21.335Z,93584.44
2019-03-04T21:10:51.176Z,93588.94
2019-03-04T21:13:23.649Z,93591.82
2019-03-04T21:15:52.645Z,93581.66
2019-03-04T21:18:21.414Z,93581.93
2019-03-04T21:20:50.509Z,93573.19
2019-03-04T21:23:19.212Z,93586.79
2019-03-04T21:25:51.955Z,93583.48
2019-03-04T21:28:37.785Z,93572.84
2019-03-04T21:31:18.078Z,93584.02
2019-03-04T21:33:58.104Z,93587.83
2019-03-04T21:36:47.509Z,93590.60
2019-03-04T21:39:19.199Z,93594.38
2019-03-04T21:41:50.723Z,93588.75
2019-03-04T21:44:47.759Z,93587.91
2019-03-04T21:47:27.869Z,93592.44
2019-03-04T21:49:56.557Z,93594.38
2019-03-04T21:52:36.287Z,93601.79
2019-03-04T21:55:16.609Z,93601.00
2019-03-04T21:57:47.845Z,93598.12
2019-03-04T22:00:23.758Z,93592.20
2019-03-04T22:03:04.066Z,93598.83
2019-03-04T22:05:32.729Z,93585.66
2019-03-04T22:08:01.370Z,93576.27
2019-03-04T22:10:30.110Z,93573.61
2019-03-04T22:12:58.742Z,93567.63
2019-03-04T22:15:27.962Z,93567.19
2019-03-04T22:17:56.577Z,93566.16
2019-03-04T22:20:25.453Z,93564.64
2019-03-04T22:22:54.177Z,93573.22
2019-03-04T22:25:22.801Z,93583.58
2019-03-04T22:27:51.509Z,93584.78
2019-03-04T22:30:20.353Z,93595.76
2019-03-04T22:32:49.180Z,93602.39
2019-03-04T22:35:17.932Z,93604.64
2019-03-04T22:37:46.668Z,93601.77
2019-03-04T22:40:20.330Z,93614.11
2019-03-04T22:42:48.986Z,93613.70
2019-03-04T22:45:19.322Z,93621.44
2019-03-04T22:47:49.142Z,93625.42
2019-03-04T22:50:19.730Z,93627.77
2019-03-04T22:52:48.459Z,93620.27
2019-03-04T22:55:28.375Z,93612.18
2019-03-04T22:57:56.993Z,93625.73
2019-03-04T23:00:54.173Z,93623.23
2019-03-04T23:03:25.132Z,93630.80
2019-03-04T23:06:02.395Z,93619.30
2019-03-04T23:08:31.040Z,93627.07
2019-03-04T23:10:59.667Z,93620.30
2019-03-04T23:13:46.003Z,93626.70
2019-03-04T23:16:17.923Z,93618.52
2019-03-04T23:18:46.539Z,93620.64
2019-03-04T23:21:15.197Z,93632.22
2019-03-04T23:23:43.825Z,93604.31
2019-03-04T23:26:12.469Z,93630.16
2019-03-04T23:28:41.202Z,93625.09
2019-03-04T23:31:09.817Z,93621.30
2019-03-04T23:33:38.447Z,93613.16
2019-03-04T23:36:07.130Z,93617.44
2019-03-04T23:38:35.753Z,93617.09
2019-03-04T23:41:04.380Z,93616.83
2019-03-04T23:43:33.534Z,93625.31
2019-03-04T23:46:02.299Z,93639.91
